ECLRG LEZL-LEZL
Flight info
| Callsign | ECLRG |
|---|---|
| Flight time | N/A |
| Altitude | 13000 |
| Route | OXACA DCT RUVEN DCT ROTEX |
| Aircraft | A320/M-SDE3FGHIRWY/LB1 |
Departure
| Time | 2026-04-28 20:19 |
|---|---|
| Airport | Seville Airport (LEZL) |
Arrival
| Time | N/A |
|---|---|
| Airport | Seville Airport (LEZL) |
| Time | Latitude | Longitude | Altitude | Speed | Heading |
|---|---|---|---|---|---|
| 2026-04-28 20:15 | 37.42092 | -5.89852 | 95 ft | 0 kts | 314° |
| 2026-04-28 20:16 | 37.42129 | -5.89877 | 94 ft | 20 kts | 352° |
| 2026-04-28 20:16 | 37.42246 | -5.89770 | 95 ft | 22 kts | 70° |
| 2026-04-28 20:16 | 37.42182 | -5.89621 | 94 ft | 19 kts | 134° |
| 2026-04-28 20:16 | 37.42098 | -5.89504 | 100 ft | 17 kts | 131° |
| 2026-04-28 20:17 | 37.42009 | -5.89389 | 99 ft | 21 kts | 128° |
| 2026-04-28 20:17 | 37.41983 | -5.89172 | 100 ft | 28 kts | 91° |
| 2026-04-28 20:17 | 37.41989 | -5.88922 | 103 ft | 0 kts | 90° |
| 2026-04-28 20:17 | 37.41993 | -5.87678 | 109 ft | 2 kts | 90° |
| 2026-04-28 20:18 | 37.41990 | -5.87618 | 109 ft | 19 kts | 96° |
| 2026-04-28 20:18 | 37.41967 | -5.87490 | 110 ft | 23 kts | 114° |
| 2026-04-28 20:18 | 37.41866 | -5.87437 | 113 ft | 12 kts | 185° |
| 2026-04-28 20:18 | 37.41782 | -5.87685 | 113 ft | 68 kts | 270° |
| 2026-04-28 20:19 | 37.41794 | -5.88559 | 106 ft | 129 kts | 269° |
| 2026-04-28 20:19 | 37.41784 | -5.89884 | 207 ft | 168 kts | 269° |
| 2026-04-28 20:19 | 37.41771 | -5.91414 | 707 ft | 180 kts | 269° |
| 2026-04-28 20:19 | 37.41767 | -5.92998 | 1355 ft | 193 kts | 268° |
| 2026-04-28 20:20 | 37.42022 | -5.94757 | 1778 ft | 222 kts | 295° |
| 2026-04-28 20:20 | 37.43189 | -5.96172 | 2204 ft | 252 kts | 335° |
| 2026-04-28 20:20 | 37.44977 | -5.96442 | 2721 ft | 272 kts | 11° |
| 2026-04-28 20:20 | 37.46654 | -5.95411 | 2876 ft | 270 kts | 46° |
| 2026-04-28 20:21 | 37.47575 | -5.93421 | 2805 ft | 261 kts | 82° |
| 2026-04-28 20:21 | 37.47565 | -5.91234 | 2681 ft | 244 kts | 102° |
| 2026-04-28 20:21 | 37.47235 | -5.89203 | 2546 ft | 231 kts | 105° |
| 2026-04-28 20:21 | 37.46905 | -5.87283 | 2366 ft | 225 kts | 104° |
| 2026-04-28 20:22 | 37.46572 | -5.85342 | 2071 ft | 223 kts | 105° |
| 2026-04-28 20:22 | 37.46248 | -5.83464 | 1783 ft | 222 kts | 105° |
| 2026-04-28 20:22 | 37.45966 | -5.81592 | 1660 ft | 209 kts | 107° |
| 2026-04-28 20:22 | 37.45328 | -5.80112 | 1521 ft | 180 kts | 138° |
| 2026-04-28 20:23 | 37.44387 | -5.79272 | 1439 ft | 154 kts | 159° |
| 2026-04-28 20:23 | 37.43402 | -5.79050 | 1299 ft | 139 kts | 188° |
| 2026-04-28 20:23 | 37.42529 | -5.79484 | 1219 ft | 136 kts | 216° |
| 2026-04-28 20:23 | 37.42102 | -5.80060 | 1152 ft | 137 kts | 237° |
| 2026-04-28 20:24 | 37.41839 | -5.81623 | 946 ft | 139 kts | 269° |
| 2026-04-28 20:24 | 37.41859 | -5.82815 | 795 ft | 137 kts | 268° |
| 2026-04-28 20:24 | 37.41831 | -5.84015 | 619 ft | 137 kts | 262° |
| 2026-04-28 20:24 | 37.41812 | -5.85211 | 453 ft | 137 kts | 269° |
| 2026-04-28 20:25 | 37.41801 | -5.86412 | 305 ft | 136 kts | 270° |
| 2026-04-28 20:25 | 37.41797 | -5.87599 | 149 ft | 135 kts | 269° |
| 2026-04-28 20:25 | 37.41798 | -5.88691 | 105 ft | 110 kts | 269° |